Terminal Aerodrome Forecast
Issued by NWS Huntsville, AL

Home | Current Version | Previous Version | Text Only | Print | Product List | Glossary On
Versions: 1 2 3 4 5 6 7 8 9 10 11 12 13 14 15 16 17 18 19 20 21 22 23 24 25 26 27 28 29 30 31 32
821
FTUS44 KHUN 301754 CCA
TAFMSL
TAF COR
KMSL 301754Z 3018/0118 22009KT P6SM BKN110 BKN250
     FM301900 22006KT P6SM VCSH SCT035 BKN110 BKN250
     FM302100 18006KT 5SM TSRA BR BKN035CB BKN110 BKN250
     FM010000 16006KT P6SM BKN035 OVC070
     FM010900 16006KT P6SM VCTS BKN025CB OVC035
     FM011200 20009KT P6SM BKN035 OVC050
      AMD NOT SKED=

USA.gov is the U.S. government's official web portal to all federal, state and local government web resources and services.